Time;durP1;ratioP1;P1;durP2;ratioP2;P2;SDS_P1;SDS_P2;PMS_P1;PMS_P2;Temp;Humidity;BMP_temperature;BMP_pressure;BME280_temperature;BME280_humidity;BME280_pressure;Samples;Min_cycle;Max_cycle;Signal;HPM_P1;HPM_P2
2021/05/28 00:02:19;;;;;;;19.13;10.32;;;12.00;99.90;;;;;;5052334;28;20028;-76
2021/05/28 00:04:45;;;;;;;14.27;9.20;;;12.00;99.90;;;;;;5058350;28;20031;-76
2021/05/28 00:08:00;;;;;;;16.70;8.73;;;11.90;99.90;;;;;;5120294;23;20009;-70
2021/05/28 00:10:27;;;;;;;12.55;8.52;;;11.80;99.90;;;;;;5013786;23;20496;-73
2021/05/28 00:12:52;;;;;;;21.35;8.55;;;11.80;99.90;;;;;;5014854;28;20045;-72
2021/05/28 00:15:18;;;;;;;11.27;7.72;;;11.80;99.90;;;;;;5015888;28;20091;-71
2021/05/28 00:17:44;;;;;;;17.00;7.70;;;11.70;99.90;;;;;;5013145;28;20018;-71
2021/05/28 00:20:13;;;;;;;11.65;8.80;;;11.70;99.90;;;;;;5015388;28;20080;-70
2021/05/28 00:22:41;;;;;;;15.35;9.40;;;11.70;99.90;;;;;;5017189;28;20025;-71
2021/05/28 00:25:08;;;;;;;14.70;8.35;;;11.70;99.90;;;;;;5016083;28;20026;-71
2021/05/28 00:27:33;;;;;;;13.98;9.05;;;11.70;99.90;;;;;;5018372;28;20490;-71
2021/05/28 00:29:59;;;;;;;15.57;9.30;;;11.60;99.90;;;;;;5018039;28;20027;-71
2021/05/28 00:32:26;;;;;;;15.13;8.60;;;11.60;99.90;;;;;;5015088;28;20029;-71
2021/05/28 00:34:52;;;;;;;19.02;8.98;;;11.60;99.90;;;;;;5018961;28;20121;-70
2021/05/28 00:37:18;;;;;;;13.30;9.65;;;11.40;99.90;;;;;;5003503;28;20071;-70
2021/05/28 00:39:45;;;;;;;15.40;9.05;;;11.40;99.90;;;;;;5017709;28;20112;-70
2021/05/28 00:42:11;;;;;;;15.18;8.93;;;11.40;99.90;;;;;;5008206;28;20120;-71
2021/05/28 00:44:39;;;;;;;14.23;8.32;;;11.40;99.90;;;;;;5015842;28;20026;-70
2021/05/28 00:47:05;;;;;;;12.32;8.70;;;11.40;99.90;;;;;;5003556;28;20045;-72
2021/05/28 00:49:31;;;;;;;15.07;9.20;;;11.40;99.90;;;;;;5016030;28;20037;-70
2021/05/28 00:51:59;;;;;;;14.10;8.88;;;11.30;99.90;;;;;;5018597;28;20043;-71
2021/05/28 00:54:25;;;;;;;16.08;9.70;;;11.30;99.90;;;;;;5018669;28;20025;-71
2021/05/28 00:56:52;;;;;;;17.60;8.85;;;11.30;99.90;;;;;;5020543;28;20018;-72
2021/05/28 00:59:18;;;;;;;14.23;8.60;;;11.30;99.90;;;;;;5022067;28;20022;-71
2021/05/28 01:01:45;;;;;;;14.00;8.75;;;11.30;99.90;;;;;;5023505;28;20454;-72
2021/05/28 01:04:12;;;;;;;17.27;9.32;;;11.20;99.90;;;;;;5021586;28;20068;-71
2021/05/28 01:06:38;;;;;;;15.82;9.88;;;11.20;99.90;;;;;;5017646;28;20429;-72
2021/05/28 01:09:05;;;;;;;13.20;9.50;;;11.10;99.90;;;;;;5019683;28;20034;-72
2021/05/28 01:11:31;;;;;;;17.23;10.13;;;11.10;99.90;;;;;;5022829;28;20091;-72
2021/05/28 01:13:57;;;;;;;19.80;10.18;;;11.10;99.90;;;;;;5021368;28;20469;-72
2021/05/28 01:16:22;;;;;;;15.18;9.10;;;11.00;99.90;;;;;;5017368;28;20075;-72
2021/05/28 01:18:48;;;;;;;18.50;9.15;;;11.00;99.90;;;;;;5017313;28;20034;-72
2021/05/28 01:21:14;;;;;;;13.88;9.50;;;10.90;99.90;;;;;;5017325;28;20026;-72
2021/05/28 01:23:40;;;;;;;16.23;9.48;;;10.90;99.90;;;;;;5018164;28;20026;-71
2021/05/28 01:26:07;;;;;;;11.93;8.98;;;10.90;99.90;;;;;;5015565;28;20030;-73
2021/05/28 01:28:33;;;;;;;13.73;10.23;;;10.80;99.90;;;;;;5019477;28;20030;-73
2021/05/28 01:30:59;;;;;;;15.27;9.70;;;10.80;99.90;;;;;;5014015;28;21419;-72
2021/05/28 01:33:28;;;;;;;13.23;9.10;;;10.80;99.90;;;;;;5017620;28;20474;-72
2021/05/28 01:35:57;;;;;;;13.20;8.75;;;10.70;99.90;;;;;;5021299;28;20029;-72
2021/05/28 01:38:23;;;;;;;12.90;8.55;;;10.70;99.90;;;;;;5018103;28;20036;-72
2021/05/28 01:40:49;;;;;;;15.27;9.30;;;10.70;99.90;;;;;;5015872;28;20044;-71
2021/05/28 01:43:15;;;;;;;14.48;9.35;;;10.70;99.90;;;;;;5015628;28;20489;-72
2021/05/28 01:45:40;;;;;;;17.27;9.60;;;10.60;99.90;;;;;;5014546;28;20026;-72
2021/05/28 01:48:06;;;;;;;11.68;8.65;;;10.60;99.90;;;;;;5013639;28;20470;-72
2021/05/28 01:50:45;;;;;;;12.27;8.02;;;10.50;99.90;;;;;;5017385;28;20080;-71
2021/05/28 01:53:14;;;;;;;12.98;8.38;;;10.50;99.90;;;;;;5019126;28;20104;-72
2021/05/28 01:55:40;;;;;;;14.82;8.60;;;10.50;99.90;;;;;;5019719;28;20021;-71
2021/05/28 01:58:14;;;;;;;15.25;8.30;;;10.50;99.90;;;;;;5018007;28;20393;-72
2021/05/28 02:00:40;;;;;;;10.20;7.63;;;10.40;99.90;;;;;;5016890;28;20026;-71
2021/05/28 02:03:07;;;;;;;10.25;7.78;;;10.40;99.90;;;;;;5019866;28;20049;-71
2021/05/28 02:05:33;;;;;;;13.98;8.45;;;10.40;99.90;;;;;;5020348;28;20048;-71
2021/05/28 02:08:00;;;;;;;12.18;8.02;;;10.40;99.90;;;;;;5023206;28;20036;-71
2021/05/28 02:10:26;;;;;;;10.65;7.65;;;10.40;99.90;;;;;;5021252;28;20046;-71
2021/05/28 02:12:54;;;;;;;11.13;8.18;;;10.30;99.90;;;;;;5019326;28;20061;-71
2021/05/28 02:15:20;;;;;;;13.70;9.32;;;10.30;99.90;;;;;;5020185;28;20035;-70
2021/05/28 02:17:46;;;;;;;13.15;8.98;;;10.30;99.90;;;;;;5017392;28;20037;-72
2021/05/28 02:20:12;;;;;;;13.00;9.00;;;10.30;99.90;;;;;;5016906;28;20487;-71
2021/05/28 02:22:38;;;;;;;12.73;9.65;;;10.20;99.90;;;;;;5018317;28;20034;-71
2021/05/28 02:25:08;;;;;;;12.25;9.48;;;10.20;99.90;;;;;;5017438;28;20026;-71
2021/05/28 02:27:34;;;;;;;15.75;9.98;;;10.10;99.90;;;;;;5016237;28;20378;-71
2021/05/28 02:30:01;;;;;;;13.27;8.73;;;10.10;99.90;;;;;;5019000;28;20071;-72
2021/05/28 02:32:27;;;;;;;14.55;9.82;;;10.20;99.90;;;;;;5021843;28;20038;-71
2021/05/28 02:34:53;;;;;;;8.80;7.90;;;10.10;99.90;;;;;;5015493;28;20501;-71
2021/05/28 02:37:19;;;;;;;10.05;7.90;;;10.10;99.90;;;;;;5013739;28;20068;-71
2021/05/28 02:39:45;;;;;;;11.93;8.20;;;10.10;99.90;;;;;;5019555;28;20037;-72
2021/05/28 02:42:11;;;;;;;14.45;9.25;;;10.10;99.90;;;;;;5016589;28;20953;-72
2021/05/28 02:44:37;;;;;;;10.85;7.75;;;10.10;99.90;;;;;;5017335;28;20030;-71
2021/05/28 02:47:03;;;;;;;10.07;7.90;;;10.10;99.90;;;;;;5014522;28;20025;-71
2021/05/28 02:49:29;;;;;;;12.95;8.18;;;10.00;99.90;;;;;;5017948;28;20036;-70
2021/05/28 02:51:55;;;;;;;12.20;8.00;;;10.00;99.90;;;;;;5017145;28;20386;-71
2021/05/28 02:54:21;;;;;;;12.30;8.88;;;9.90;99.90;;;;;;5020640;28;20022;-71
2021/05/28 02:56:46;;;;;;;17.48;9.45;;;9.90;99.90;;;;;;5013236;28;20025;-71
2021/05/28 02:59:12;;;;;;;10.00;8.88;;;9.90;99.90;;;;;;5015346;28;20036;-70
2021/05/28 03:01:38;;;;;;;11.85;8.70;;;9.90;99.90;;;;;;5014768;28;20036;-71
2021/05/28 03:04:03;;;;;;;12.05;8.50;;;9.80;99.90;;;;;;5015694;28;20030;-71
2021/05/28 03:06:30;;;;;;;12.40;9.32;;;9.80;99.90;;;;;;5019820;28;20116;-71
2021/05/28 03:08:56;;;;;;;12.63;9.60;;;9.80;99.90;;;;;;5015455;28;20371;-71
2021/05/28 03:11:22;;;;;;;11.80;8.20;;;9.80;99.90;;;;;;5014006;28;20013;-71
2021/05/28 03:13:47;;;;;;;14.50;9.30;;;9.80;99.90;;;;;;5016128;28;20045;-72
2021/05/28 03:16:13;;;;;;;10.52;7.95;;;9.70;99.90;;;;;;5012809;28;20033;-71
2021/05/28 03:18:54;;;;;;;10.82;8.43;;;9.70;99.90;;;;;;5018780;28;20120;-72
2021/05/28 03:22:30;;;;;;;11.20;8.00;;;9.70;99.90;;;;;;5018065;28;20489;-71
2021/05/28 03:24:09;;;;;;;7.55;6.60;;;9.70;99.90;;;;;;5020645;28;20469;-71
2021/05/28 03:26:35;;;;;;;7.85;7.10;;;9.70;99.90;;;;;;5015470;28;20041;-71
2021/05/28 03:29:02;;;;;;;10.45;7.50;;;9.60;99.90;;;;;;5021106;28;20112;-71
2021/05/28 03:31:28;;;;;;;8.15;6.50;;;9.70;99.90;;;;;;5017713;28;20017;-72
2021/05/28 03:33:54;;;;;;;7.20;6.50;;;9.70;99.90;;;;;;5015250;28;20472;-72
2021/05/28 03:36:20;;;;;;;9.52;7.68;;;9.70;99.90;;;;;;5018231;28;20021;-72
2021/05/28 03:38:47;;;;;;;7.28;6.57;;;9.60;99.90;;;;;;5022771;28;20129;-71
2021/05/28 03:41:13;;;;;;;9.20;6.20;;;9.60;99.90;;;;;;5014305;28;20056;-72
2021/05/28 03:43:39;;;;;;;11.05;6.53;;;9.70;99.90;;;;;;5017837;28;20026;-72
2021/05/28 03:46:05;;;;;;;10.85;7.75;;;9.70;99.90;;;;;;5016596;28;20100;-72
2021/05/28 03:48:31;;;;;;;8.48;6.32;;;9.80;99.90;;;;;;5015627;28;20101;-72
2021/05/28 03:50:57;;;;;;;10.52;7.40;;;9.80;99.90;;;;;;5015301;28;20029;-72
2021/05/28 03:53:23;;;;;;;13.35;8.65;;;9.80;99.90;;;;;;5018970;28;20484;-72
2021/05/28 03:55:49;;;;;;;16.20;8.05;;;9.80;99.90;;;;;;5017745;28;20032;-72
2021/05/28 03:58:15;;;;;;;12.32;8.15;;;9.90;99.90;;;;;;5013207;28;20033;-72
2021/05/28 04:00:41;;;;;;;15.38;8.85;;;9.90;99.90;;;;;;5016030;28;20512;-71
2021/05/28 04:03:07;;;;;;;18.75;10.45;;;9.90;99.90;;;;;;5014283;28;20064;-72
2021/05/28 04:05:33;;;;;;;25.27;12.35;;;9.90;99.90;;;;;;5018209;28;20014;-72
2021/05/28 04:07:59;;;;;;;27.98;13.07;;;10.00;99.90;;;;;;5017541;28;20037;-71
2021/05/28 04:10:25;;;;;;;37.28;13.98;;;10.00;99.90;;;;;;5018939;28;20034;-72
2021/05/28 04:12:54;;;;;;;28.42;15.15;;;10.00;99.90;;;;;;5019503;28;20457;-72
2021/05/28 04:15:20;;;;;;;30.02;13.68;;;10.00;99.90;;;;;;5021462;28;20423;-71
2021/05/28 04:17:45;;;;;;;22.25;14.60;;;10.10;99.90;;;;;;5019590;28;20042;-72
2021/05/28 04:20:12;;;;;;;27.83;14.95;;;10.10;99.90;;;;;;5018726;28;20030;-70
2021/05/28 04:22:38;;;;;;;28.38;15.05;;;10.10;99.90;;;;;;5026397;28;20026;-71
2021/05/28 04:25:04;;;;;;;25.75;13.32;;;10.10;99.90;;;;;;5024692;28;20168;-70
2021/05/28 04:27:29;;;;;;;32.47;15.32;;;10.20;99.90;;;;;;5023544;28;20026;-71
2021/05/28 04:29:55;;;;;;;27.35;15.10;;;10.20;99.90;;;;;;5016371;28;20048;-70
2021/05/28 04:32:21;;;;;;;22.67;12.82;;;10.30;99.90;;;;;;5023182;28;20389;-71
2021/05/28 04:34:46;;;;;;;20.05;14.98;;;10.30;99.90;;;;;;5024865;28;20087;-71
2021/05/28 04:37:12;;;;;;;28.73;13.80;;;10.30;99.90;;;;;;5020575;28;20030;-71
2021/05/28 04:39:37;;;;;;;31.60;13.32;;;10.40;99.90;;;;;;5021432;28;20052;-70
2021/05/28 04:42:03;;;;;;;20.52;14.15;;;10.30;99.90;;;;;;5014247;28;20032;-70
2021/05/28 04:44:29;;;;;;;17.27;14.00;;;10.40;99.90;;;;;;5018681;28;20927;-71
2021/05/28 04:46:56;;;;;;;43.50;15.07;;;10.50;99.90;;;;;;5016583;28;20088;-70
2021/05/28 04:49:23;;;;;;;65.95;16.17;;;10.50;99.90;;;;;;5024409;28;20053;-71
2021/05/28 04:51:49;;;;;;;23.23;14.65;;;10.40;99.90;;;;;;5021269;28;20456;-71
2021/05/28 04:54:15;;;;;;;23.15;13.98;;;10.40;99.90;;;;;;5019233;28;20053;-70
2021/05/28 04:56:41;;;;;;;35.85;15.30;;;10.40;99.90;;;;;;5016373;28;20041;-71
2021/05/28 04:59:06;;;;;;;34.65;15.70;;;10.40;99.90;;;;;;5021646;28;20033;-71
2021/05/28 05:01:32;;;;;;;19.30;13.93;;;10.40;99.90;;;;;;5028732;28;20033;-71
2021/05/28 05:03:58;;;;;;;25.27;14.18;;;10.50;99.90;;;;;;5017037;28;20056;-70
2021/05/28 05:06:23;;;;;;;59.03;15.40;;;10.60;99.90;;;;;;5020269;28;20101;-71
2021/05/28 05:08:49;;;;;;;40.58;17.67;;;10.60;99.90;;;;;;5017109;28;20026;-71
2021/05/28 05:11:15;;;;;;;35.50;17.83;;;10.60;99.90;;;;;;5014745;28;20938;-71
2021/05/28 05:13:40;;;;;;;29.48;16.60;;;10.60;99.90;;;;;;5022654;28;20041;-71
2021/05/28 05:16:06;;;;;;;28.98;15.65;;;10.70;99.90;;;;;;5018028;28;20021;-70
2021/05/28 05:18:32;;;;;;;30.73;15.80;;;10.70;99.90;;;;;;5018971;28;20498;-71
2021/05/28 05:20:57;;;;;;;27.45;17.48;;;10.70;99.90;;;;;;5018144;28;20470;-71
2021/05/28 05:23:23;;;;;;;59.13;17.75;;;10.80;99.90;;;;;;5020438;28;20113;-71
2021/05/28 05:25:49;;;;;;;27.40;16.92;;;10.80;99.90;;;;;;5023603;28;20022;-71
2021/05/28 05:28:15;;;;;;;40.88;17.02;;;10.90;99.90;;;;;;5023381;28;20795;-71
2021/05/28 05:30:40;;;;;;;55.55;17.80;;;11.00;99.90;;;;;;5016837;28;20029;-71
2021/05/28 05:33:07;;;;;;;82.38;18.17;;;11.00;99.90;;;;;;5028105;28;20054;-71
2021/05/28 05:35:33;;;;;;;39.15;29.92;;;11.10;99.90;;;;;;5016939;28;20501;-71
2021/05/28 05:37:59;;;;;;;37.30;20.13;;;11.10;99.90;;;;;;5019683;28;20030;-71
2021/05/28 05:40:25;;;;;;;46.45;20.02;;;11.10;99.90;;;;;;5019464;28;20105;-71
2021/05/28 05:42:51;;;;;;;40.63;21.73;;;11.10;99.90;;;;;;5021566;28;20155;-71
2021/05/28 05:45:17;;;;;;;42.10;20.60;;;11.20;99.90;;;;;;5022783;28;20022;-72
2021/05/28 05:47:43;;;;;;;43.33;20.02;;;11.20;99.90;;;;;;5022533;28;20095;-71
2021/05/28 05:50:10;;;;;;;53.40;21.88;;;11.30;99.90;;;;;;5018186;28;20021;-71
2021/05/28 05:52:36;;;;;;;26.20;17.25;;;11.30;99.90;;;;;;5020742;28;20091;-71
2021/05/28 05:55:03;;;;;;;32.40;19.20;;;11.30;99.90;;;;;;5016460;28;20021;-71
2021/05/28 05:57:28;;;;;;;38.60;21.13;;;11.40;99.90;;;;;;5017144;28;20041;-71
2021/05/28 05:59:54;;;;;;;41.97;20.52;;;11.30;99.90;;;;;;5018598;28;20025;-71
2021/05/28 06:02:19;;;;;;;33.50;19.27;;;11.30;99.90;;;;;;5027283;28;20365;-71
2021/05/28 06:04:45;;;;;;;33.17;20.00;;;11.30;99.90;;;;;;5026174;28;20497;-72
2021/05/28 06:07:11;;;;;;;31.77;19.30;;;11.40;99.90;;;;;;5020944;28;20034;-71
2021/05/28 06:09:37;;;;;;;31.40;19.05;;;11.40;99.90;;;;;;5016820;28;20025;-72
2021/05/28 06:12:03;;;;;;;35.10;18.63;;;11.40;99.90;;;;;;5018673;28;20050;-72
2021/05/28 06:14:28;;;;;;;34.78;18.52;;;11.30;99.90;;;;;;5021057;28;20026;-71
2021/05/28 06:16:54;;;;;;;31.10;20.38;;;11.50;99.90;;;;;;5020031;28;20491;-71
2021/05/28 06:19:20;;;;;;;30.58;19.30;;;11.50;99.90;;;;;;5018576;28;20041;-71
2021/05/28 06:21:46;;;;;;;27.33;17.05;;;11.60;99.90;;;;;;5016680;28;20022;-73
2021/05/28 06:24:12;;;;;;;30.88;19.67;;;11.70;99.90;;;;;;5012584;28;20068;-72
2021/05/28 06:26:38;;;;;;;26.42;16.80;;;11.70;99.90;;;;;;5018961;28;20026;-72
2021/05/28 06:29:06;;;;;;;26.13;16.13;;;11.70;99.90;;;;;;5014290;28;20029;-72
2021/05/28 06:31:32;;;;;;;24.63;16.83;;;11.80;99.90;;;;;;5018622;28;20029;-72
2021/05/28 06:33:58;;;;;;;25.67;16.55;;;11.80;99.90;;;;;;5015886;28;20029;-72
2021/05/28 06:36:24;;;;;;;29.90;17.52;;;11.90;99.90;;;;;;5019047;28;20038;-72
2021/05/28 06:38:50;;;;;;;27.52;16.17;;;11.90;99.90;;;;;;5019758;28;20132;-72
2021/05/28 06:41:15;;;;;;;29.02;17.00;;;12.00;99.90;;;;;;5016436;28;20025;-72
2021/05/28 06:43:41;;;;;;;33.08;18.75;;;11.90;99.90;;;;;;5016038;28;20037;-71
2021/05/28 06:46:07;;;;;;;26.58;15.93;;;11.90;99.90;;;;;;5014716;28;20030;-72
2021/05/28 06:48:32;;;;;;;32.25;17.38;;;11.90;99.90;;;;;;5019987;28;20466;-72
2021/05/28 06:50:58;;;;;;;25.45;17.38;;;11.90;99.90;;;;;;5018948;28;20037;-72
2021/05/28 06:53:24;;;;;;;29.23;19.70;;;11.90;99.90;;;;;;5016714;28;20045;-72
2021/05/28 06:55:50;;;;;;;24.98;16.85;;;11.90;99.90;;;;;;5013178;28;20036;-72
2021/05/28 06:58:17;;;;;;;31.50;19.23;;;12.10;99.90;;;;;;5021849;28;20390;-72
2021/05/28 07:00:43;;;;;;;32.35;20.65;;;12.20;99.90;;;;;;5016929;28;20030;-72
2021/05/28 07:03:08;;;;;;;33.45;18.58;;;12.20;99.90;;;;;;5018383;28;20501;-72
2021/05/28 07:05:34;;;;;;;33.58;21.23;;;12.30;99.90;;;;;;5012335;28;20042;-74
2021/05/28 07:08:00;;;;;;;33.75;21.13;;;12.30;99.90;;;;;;5014001;28;20021;-72
2021/05/28 07:10:26;;;;;;;30.90;20.35;;;12.40;99.90;;;;;;5020343;28;20042;-72
2021/05/28 07:12:52;;;;;;;31.60;20.55;;;12.40;99.90;;;;;;5019930;28;20041;-71
2021/05/28 07:15:18;;;;;;;40.75;24.30;;;12.50;99.90;;;;;;5016718;28;20095;-71
2021/05/28 07:17:45;;;;;;;35.42;24.45;;;12.50;99.90;;;;;;5016252;28;20030;-71
2021/05/28 07:20:11;;;;;;;32.75;22.50;;;12.60;99.90;;;;;;5012089;28;20458;-72
2021/05/28 07:22:37;;;;;;;36.05;22.48;;;12.60;99.90;;;;;;5016177;28;20029;-72
2021/05/28 07:25:03;;;;;;;31.60;21.40;;;12.50;99.90;;;;;;5014535;28;20421;-71
2021/05/28 07:27:29;;;;;;;35.17;20.55;;;12.40;99.90;;;;;;5012479;28;20113;-71
2021/05/28 07:29:55;;;;;;;30.67;20.20;;;12.30;99.90;;;;;;5022572;28;20116;-71
2021/05/28 07:32:20;;;;;;;33.50;19.65;;;12.50;99.90;;;;;;5015845;28;20462;-71
2021/05/28 07:34:46;;;;;;;27.65;16.75;;;12.80;99.90;;;;;;5018632;28;20315;-71
2021/05/28 07:37:12;;;;;;;24.67;15.70;;;12.80;99.90;;;;;;5016603;28;20030;-71
2021/05/28 07:39:38;;;;;;;28.52;17.83;;;12.90;99.90;;;;;;5015742;28;20033;-71
2021/05/28 07:42:04;;;;;;;26.20;16.88;;;12.90;99.90;;;;;;5019609;28;20488;-71
2021/05/28 07:44:30;;;;;;;23.80;17.13;;;12.80;99.90;;;;;;5014407;28;20037;-71
2021/05/28 07:46:56;;;;;;;23.27;15.90;;;12.80;99.90;;;;;;5021504;28;20212;-71
2021/05/28 07:49:23;;;;;;;27.80;17.63;;;12.90;99.90;;;;;;5012763;28;20034;-71
2021/05/28 07:51:48;;;;;;;27.02;16.85;;;13.00;99.90;;;;;;5020171;28;20061;-71
2021/05/28 07:54:14;;;;;;;25.05;18.38;;;13.10;99.90;;;;;;5016673;28;20449;-71
2021/05/28 07:56:40;;;;;;;34.95;18.45;;;13.20;99.90;;;;;;5020151;28;20029;-71
2021/05/28 07:59:06;;;;;;;27.95;16.25;;;13.10;99.90;;;;;;5016979;28;20029;-70
2021/05/28 08:01:32;;;;;;;27.50;16.80;;;13.20;99.90;;;;;;5015709;28;20075;-70
2021/05/28 08:03:59;;;;;;;22.50;16.33;;;13.10;99.90;;;;;;5019648;28;20017;-70
2021/05/28 08:06:25;;;;;;;26.05;16.63;;;13.10;99.90;;;;;;5013031;28;20034;-70
2021/05/28 08:08:51;;;;;;;23.73;16.77;;;13.20;99.90;;;;;;5014157;28;20065;-70
2021/05/28 08:11:17;;;;;;;24.58;14.63;;;13.30;99.90;;;;;;5017399;28;20073;-70
2021/05/28 08:13:43;;;;;;;24.30;14.13;;;13.40;99.90;;;;;;5018102;28;20457;-70
2021/05/28 08:16:08;;;;;;;23.80;13.82;;;13.60;99.90;;;;;;5015486;28;20054;-71
2021/05/28 08:18:35;;;;;;;18.13;13.02;;;13.80;99.90;;;;;;5018549;28;20054;-71
2021/05/28 08:21:02;;;;;;;22.50;14.13;;;13.80;99.90;;;;;;5019279;28;20018;-71
2021/05/28 08:23:27;;;;;;;19.55;13.57;;;14.00;99.90;;;;;;5015099;28;20022;-71
2021/05/28 08:25:53;;;;;;;18.63;12.32;;;14.30;99.90;;;;;;5014296;28;20080;-71
2021/05/28 08:28:19;;;;;;;22.55;12.50;;;14.50;99.90;;;;;;5016037;28;20398;-71
2021/05/28 08:30:45;;;;;;;17.52;12.50;;;14.70;99.90;;;;;;5014252;28;20061;-71
2021/05/28 08:33:12;;;;;;;17.92;13.40;;;14.80;99.90;;;;;;5015601;28;20062;-71
2021/05/28 08:35:40;;;;;;;16.25;12.52;;;14.90;99.90;;;;;;5010281;28;20053;-71
2021/05/28 08:38:06;;;;;;;15.52;12.38;;;15.00;99.90;;;;;;5012650;28;20025;-71
2021/05/28 08:40:33;;;;;;;16.08;13.20;;;15.10;99.90;;;;;;5007896;28;20029;-71
2021/05/28 08:43:01;;;;;;;15.52;10.82;;;15.20;99.90;;;;;;5009235;28;20111;-71
2021/05/28 08:45:33;;;;;;;19.85;13.40;;;15.30;99.90;;;;;;5012149;28;20025;-71
2021/05/28 08:47:58;;;;;;;21.88;14.45;;;15.30;99.90;;;;;;5015357;28;20639;-71
2021/05/28 08:50:27;;;;;;;19.25;13.55;;;15.30;99.90;;;;;;5015418;28;20029;-71
2021/05/28 08:52:53;;;;;;;18.20;13.10;;;15.20;99.90;;;;;;5009481;28;20026;-70
2021/05/28 08:55:19;;;;;;;20.63;11.85;;;15.30;99.90;;;;;;5015353;28;20032;-71
2021/05/28 08:57:44;;;;;;;16.80;13.50;;;15.20;99.90;;;;;;5015986;28;20018;-72
2021/05/28 09:00:11;;;;;;;17.10;11.40;;;15.30;99.90;;;;;;5017191;28;20461;-72
2021/05/28 09:02:39;;;;;;;15.00;10.32;;;15.50;99.90;;;;;;5017322;28;20025;-72
2021/05/28 09:05:10;;;;;;;15.93;10.18;;;15.30;99.90;;;;;;5008791;28;20401;-72
2021/05/28 09:07:35;;;;;;;12.05;9.02;;;15.30;99.90;;;;;;5022936;28;20033;-72
2021/05/28 09:10:21;;;;;;;13.07;9.23;;;15.50;99.90;;;;;;5018575;28;20441;-72
2021/05/28 09:12:47;;;;;;;10.98;7.85;;;15.60;99.90;;;;;;5015217;28;20506;-71
2021/05/28 09:15:20;;;;;;;9.73;7.70;;;15.80;99.90;;;;;;5019382;28;20556;-72
2021/05/28 09:17:54;;;;;;;12.77;9.32;;;15.80;99.90;;;;;;5015328;28;20416;-72
2021/05/28 09:20:20;;;;;;;15.32;11.02;;;15.80;99.90;;;;;;5019298;28;20021;-72
2021/05/28 09:22:46;;;;;;;16.00;11.90;;;15.80;99.90;;;;;;5017863;28;20024;-72
2021/05/28 09:25:12;;;;;;;12.70;10.82;;;15.70;99.90;;;;;;5014821;28;20481;-71
2021/05/28 09:27:40;;;;;;;14.77;10.95;;;15.90;99.90;;;;;;5014978;28;20075;-72
2021/05/28 09:30:14;;;;;;;25.17;16.73;;;16.30;99.90;;;;;;5020199;28;20021;-72
2021/05/28 09:32:43;;;;;;;24.83;18.05;;;16.30;99.90;;;;;;5024714;28;20042;-71
2021/05/28 09:35:12;;;;;;;11.80;8.18;;;16.30;99.90;;;;;;5017171;28;20076;-72
2021/05/28 09:37:41;;;;;;;6.72;4.65;;;16.70;99.90;;;;;;5015755;28;20044;-71
2021/05/28 09:40:13;;;;;;;4.28;3.53;;;16.80;99.90;;;;;;5017916;28;20072;-72
2021/05/28 09:42:57;;;;;;;7.68;3.78;;;17.10;99.90;;;;;;5021020;28;20029;-72
2021/05/28 09:45:36;;;;;;;3.42;3.03;;;17.40;99.90;;;;;;5016585;28;20018;-72
2021/05/28 09:48:03;;;;;;;5.15;2.72;;;17.60;99.90;;;;;;5016778;28;20052;-72
2021/05/28 09:50:34;;;;;;;4.15;3.17;;;17.60;99.90;;;;;;5018129;28;20369;-72
2021/05/28 09:53:01;;;;;;;4.15;3.50;;;17.40;99.90;;;;;;5018772;28;20034;-71
2021/05/28 09:55:30;;;;;;;4.40;3.45;;;17.60;99.90;;;;;;5023274;28;20018;-71
2021/05/28 09:57:57;;;;;;;6.10;4.28;;;17.60;99.90;;;;;;5012295;28;20488;-73
2021/05/28 10:00:24;;;;;;;5.13;4.63;;;17.80;99.90;;;;;;5014785;28;20072;-72
2021/05/28 10:03:11;;;;;;;4.55;3.67;;;17.90;99.90;;;;;;5018070;28;20049;-72
2021/05/28 10:05:38;;;;;;;3.08;2.72;;;18.10;99.90;;;;;;5012889;28;20510;-72
2021/05/28 10:08:08;;;;;;;4.28;3.70;;;18.00;99.90;;;;;;5017702;28;20462;-72
2021/05/28 10:10:35;;;;;;;4.95;3.90;;;18.00;99.90;;;;;;5023056;28;20429;-72
2021/05/28 10:13:09;;;;;;;5.75;3.97;;;18.30;99.90;;;;;;5015034;28;20100;-72
2021/05/28 10:15:36;;;;;;;4.65;3.78;;;18.30;99.90;;;;;;5016523;28;20022;-72
2021/05/28 10:18:03;;;;;;;3.95;3.60;;;18.50;99.90;;;;;;5015942;28;20061;-72
2021/05/28 10:20:29;;;;;;;4.65;4.10;;;18.50;99.90;;;;;;5015445;28;20026;-72
2021/05/28 10:22:54;;;;;;;5.05;3.95;;;18.70;99.90;;;;;;5014469;28;20719;-72
2021/05/28 10:25:20;;;;;;;6.03;4.65;;;18.60;99.90;;;;;;5009241;28;20021;-72
2021/05/28 10:27:58;;;;;;;3.65;2.67;;;18.80;99.90;;;;;;5016245;28;20026;-72
2021/05/28 10:30:38;;;;;;;3.35;3.05;;;18.90;99.90;;;;;;5012937;28;20060;-72
2021/05/28 10:33:23;;;;;;;4.25;2.85;;;18.80;99.90;;;;;;5014782;28;20033;-72
2021/05/28 10:35:51;;;;;;;5.32;3.75;;;19.00;99.90;;;;;;5013366;28;20029;-72
2021/05/28 10:38:36;;;;;;;4.97;3.63;;;19.10;99.90;;;;;;5012702;28;20458;-72
2021/05/28 10:41:05;;;;;;;4.50;4.10;;;19.30;99.90;;;;;;5005175;28;20104;-71
2021/05/28 10:43:33;;;;;;;5.80;3.30;;;19.50;99.90;;;;;;5019051;28;20061;-72
2021/05/28 10:46:01;;;;;;;3.35;3.10;;;19.50;99.90;;;;;;5017771;28;20041;-72
2021/05/28 10:48:42;;;;;;;3.92;2.63;;;19.40;99.90;;;;;;5018103;28;20025;-72
2021/05/28 10:51:09;;;;;;;4.03;2.78;;;19.50;99.90;;;;;;5018249;28;20059;-72
2021/05/28 10:53:35;;;;;;;3.08;2.80;;;19.70;99.90;;;;;;5018640;28;20046;-72
2021/05/28 10:56:09;;;;;;;2.58;2.00;;;19.50;99.90;;;;;;5014639;28;20033;-73
2021/05/28 10:58:57;;;;;;;2.85;1.50;;;19.60;99.90;;;;;;5019888;28;20883;-72
2021/05/28 11:01:34;;;;;;;1.38;1.27;;;19.70;99.90;;;;;;5016370;28;20057;-72
2021/05/28 11:04:27;;;;;;;1.83;1.58;;;19.70;99.90;;;;;;5020098;28;20022;-73
2021/05/28 11:06:56;;;;;;;2.10;1.90;;;20.00;99.90;;;;;;4998159;28;20047;-72
2021/05/28 11:09:39;;;;;;;2.30;1.70;;;20.10;99.90;;;;;;5014267;28;20442;-73
2021/05/28 11:12:13;;;;;;;3.30;2.55;;;20.00;99.90;;;;;;5015004;28;20096;-72
2021/05/28 11:14:59;;;;;;;2.83;2.63;;;20.00;99.90;;;;;;5012725;28;20032;-73
2021/05/28 11:17:25;;;;;;;2.20;1.95;;;20.10;99.90;;;;;;5012764;28;20025;-72
2021/05/28 11:19:55;;;;;;;6.63;3.35;;;20.10;99.90;;;;;;5016371;28;20017;-73
2021/05/28 11:22:40;;;;;;;4.38;3.08;;;20.30;99.90;;;;;;5015905;28;20493;-72
2021/05/28 11:25:19;;;;;;;3.25;2.72;;;20.30;99.90;;;;;;5014497;28;20098;-73
2021/05/28 11:27:54;;;;;;;4.57;3.00;;;20.30;99.90;;;;;;5015557;28;20022;-73
2021/05/28 11:30:23;;;;;;;2.03;1.83;;;20.40;99.90;;;;;;5017262;28;20075;-73
2021/05/28 11:32:49;;;;;;;3.63;2.50;;;20.50;99.90;;;;;;5015956;28;20057;-73
2021/05/28 11:35:23;;;;;;;3.60;2.30;;;20.40;99.90;;;;;;5014542;28;20030;-72
2021/05/28 11:37:59;;;;;;;4.45;1.80;;;20.30;99.90;;;;;;5018214;28;20077;-72
2021/05/28 11:40:28;;;;;;;2.33;2.13;;;20.30;99.90;;;;;;5014804;28;20029;-72
2021/05/28 11:43:12;;;;;;;3.92;2.70;;;20.30;99.90;;;;;;5014204;28;20029;-73
2021/05/28 11:45:40;;;;;;;2.47;2.28;;;20.30;99.90;;;;;;5015127;28;20064;-73
2021/05/28 11:48:25;;;;;;;2.40;2.05;;;20.00;99.90;;;;;;5018009;28;20022;-73
2021/05/28 11:50:54;;;;;;;2.45;2.10;;;19.40;99.90;;;;;;5012531;28;20363;-73
2021/05/28 11:53:20;;;;;;;4.03;1.73;;;19.50;99.90;;;;;;5011867;28;20034;-73
2021/05/28 11:55:54;;;;;;;2.60;2.30;;;19.90;99.90;;;;;;5015444;28;20043;-73
2021/05/28 11:58:21;;;;;;;3.53;2.47;;;20.20;99.90;;;;;;5021923;28;20429;-73
2021/05/28 12:00:49;;;;;;;2.95;2.75;;;20.40;99.90;;;;;;5015065;28;20106;-73
2021/05/28 12:03:16;;;;;;;4.50;2.45;;;20.50;99.90;;;;;;5020278;28;20462;-71
2021/05/28 12:05:44;;;;;;;6.95;3.83;;;20.70;99.90;;;;;;5013701;28;20090;-73
2021/05/28 12:08:09;;;;;;;5.00;3.65;;;20.80;99.90;;;;;;5015558;28;20487;-73
2021/05/28 12:10:37;;;;;;;5.38;4.75;;;20.70;99.90;;;;;;5012218;28;20121;-73
2021/05/28 12:13:09;;;;;;;4.53;4.18;;;20.80;99.90;;;;;;5015910;28;20044;-73
2021/05/28 12:15:40;;;;;;;4.53;3.35;;;21.00;99.90;;;;;;5013941;28;20375;-72
2021/05/28 12:18:30;;;;;;;4.38;3.65;;;21.30;99.90;;;;;;5018859;28;20465;-73
2021/05/28 12:21:05;;;;;;;5.15;3.85;;;21.10;99.90;;;;;;5017436;28;20029;-73
2021/05/28 12:24:01;;;;;;;4.93;4.35;;;21.30;99.90;;;;;;5018290;28;20494;-73
2021/05/28 12:26:29;;;;;;;4.43;4.00;;;20.90;99.90;;;;;;4988811;28;20486;-74
2021/05/28 12:29:02;;;;;;;4.75;3.97;;;20.80;99.90;;;;;;5011814;28;20029;-73
2021/05/28 12:31:29;;;;;;;5.50;5.00;;;20.80;99.90;;;;;;5018372;28;20478;-74
2021/05/28 12:34:06;;;;;;;5.30;3.55;;;20.80;99.90;;;;;;5017479;28;20037;-73
2021/05/28 12:36:41;;;;;;;4.25;3.90;;;21.00;99.90;;;;;;5023003;28;20044;-74
2021/05/28 12:39:09;;;;;;;5.22;4.20;;;21.20;99.90;;;;;;5021672;28;20036;-73
2021/05/28 12:41:36;;;;;;;5.35;3.80;;;21.10;99.90;;;;;;5020358;28;20493;-73